Time;durP1;ratioP1;P1;durP2;ratioP2;P2;SDS_P1;SDS_P2;PMS_P1;PMS_P2;Temp;Humidity;BMP_temperature;BMP_pressure;BME280_temperature;BME280_humidity;BME280_pressure;Samples;Min_cycle;Max_cycle;Signal;HPM_P1;HPM_P2
2024/04/14 00:00:59;;;;;;;;;4.33;4.33;;;;;20.08;53.20;102142.13;2155769;26;2749289;-77
2024/04/14 00:02:09;;;;;;;;;4.00;3.00;;;;;20.08;53.30;102147.47;2167274;26;2744066;-77
2024/04/14 00:03:21;;;;;;;;;4.67;4.00;;;;;20.04;52.88;102151.25;2179827;26;2741884;-77
2024/04/14 00:04:35;;;;;;;;;3.67;3.67;;;;;20.00;52.88;102139.88;2209384;25;2733565;-77
2024/04/14 00:05:48;;;;;;;;;3.67;3.17;;;;;19.99;52.92;102140.81;2184107;25;2731455;-77
2024/04/14 00:06:59;;;;;;;;;5.00;5.00;;;;;19.96;53.09;102139.16;2157132;26;2752427;-77
2024/04/14 00:08:10;;;;;;;;;3.33;3.33;;;;;19.98;53.25;102145.28;2180343;26;2743969;-77
2024/04/14 00:09:21;;;;;;;;;3.00;3.00;;;;;19.98;53.21;102153.28;2180054;26;2750312;-77
2024/04/14 00:10:32;;;;;;;;;5.33;4.00;;;;;19.93;52.51;102136.66;2166464;26;2743958;-77
2024/04/14 00:11:43;;;;;;;;;7.00;4.33;;;;;19.90;52.54;102140.34;2166338;26;3467888;-77
2024/04/14 00:12:55;;;;;;;;;6.00;4.00;;;;;19.90;52.30;102144.84;2195460;26;1821035;-77
2024/04/14 00:14:09;;;;;;;;;3.17;2.67;;;;;19.86;51.92;102140.56;2182516;26;2733559;-77
2024/04/14 00:15:20;;;;;;;;;6.00;4.00;;;;;19.82;51.88;102147.00;2154940;26;2743012;-77
2024/04/14 00:16:31;;;;;;;;;7.00;5.33;;;;;19.77;52.61;102140.09;2169945;25;2746115;-77
2024/04/14 00:17:42;;;;;;;;;6.00;4.00;;;;;19.76;52.65;102142.84;2166178;26;2754488;-78
2024/04/14 00:18:53;;;;;;;;;5.67;5.00;;;;;19.76;52.26;102140.16;2165601;26;2747162;-77
2024/04/14 00:20:06;;;;;;;;;5.00;5.00;;;;;19.76;52.33;102149.03;2180715;25;3467868;-77
2024/04/14 00:21:18;;;;;;;;;6.67;5.00;;;;;19.79;52.54;102151.56;2180477;26;2746424;-77
2024/04/14 00:22:29;;;;;;;;;6.67;6.00;;;;;19.77;53.21;102137.44;2180636;26;2754489;-78
2024/04/14 00:23:40;;;;;;;;;4.33;4.33;;;;;19.76;51.58;102148.16;2181257;26;2749250;-77
2024/04/14 00:24:51;;;;;;;;;5.00;4.00;;;;;19.75;53.15;102147.34;2181644;26;2746176;-77
2024/04/14 00:26:03;;;;;;;;;12.67;6.00;;;;;19.71;53.35;102143.06;2178243;26;3506451;-77
2024/04/14 00:27:14;;;;;;;;;5.33;5.00;;;;;19.72;52.91;102146.59;2179474;26;2748180;-77
2024/04/14 00:28:25;;;;;;;;;5.33;5.00;;;;;19.70;52.66;102152.03;2166796;26;2739831;-77
2024/04/14 00:29:36;;;;;;;;;8.00;5.33;;;;;19.68;52.62;102143.22;2180111;26;1827702;-77
2024/04/14 00:30:47;;;;;;;;;4.00;4.00;;;;;19.72;53.33;102157.28;2128014;26;2754465;-77
2024/04/14 00:31:58;;;;;;;;;6.67;5.00;;;;;19.68;52.95;102143.22;2171796;26;2746145;-77
2024/04/14 00:33:09;;;;;;;;;5.00;5.00;;;;;19.68;53.51;102145.88;2179840;25;3459587;-77
2024/04/14 00:34:21;;;;;;;;;4.33;4.33;;;;;19.68;53.72;102141.41;2177371;26;2743978;-77
2024/04/14 00:35:32;;;;;;;;;5.00;5.00;;;;;19.69;53.78;102142.28;2181745;25;2740864;-77
2024/04/14 00:36:43;;;;;;;;;5.00;5.00;;;;;19.68;53.09;102145.88;2180640;26;2746136;-77
2024/04/14 00:37:54;;;;;;;;;5.00;5.00;;;;;19.65;52.14;102157.59;2165705;26;2743219;-77
2024/04/14 00:39:05;;;;;;;;;5.67;5.00;;;;;19.61;52.87;102149.78;2166154;26;2745085;-77
2024/04/14 00:40:17;;;;;;;;;5.33;5.33;;;;;19.61;52.65;102157.78;2166259;26;2745071;-77
2024/04/14 00:41:31;;;;;;;;;4.50;3.50;;;;;19.58;52.37;102161.50;2193465;26;2741891;-77
2024/04/14 00:42:42;;;;;;;;;9.00;5.67;;;;;19.53;52.08;102164.38;2145420;26;2745085;-77
2024/04/14 00:43:53;;;;;;;;;6.67;3.00;;;;;19.40;51.58;102153.44;2181618;25;2741987;-77
2024/04/14 00:45:04;;;;;;;;;3.67;2.33;;;;;19.40;52.07;102152.59;2178094;26;2750225;-77
2024/04/14 00:46:15;;;;;;;;;4.33;4.33;;;;;19.40;52.17;102158.78;2163848;26;2748237;-77
2024/04/14 00:47:25;;;;;;;;;8.00;6.00;;;;;19.41;51.46;102154.31;2166275;26;2742921;-77
2024/04/14 00:48:36;;;;;;;;;4.33;4.33;;;;;19.38;51.76;102157.13;2166270;26;2742954;-77
2024/04/14 00:49:48;;;;;;;;;4.67;4.67;;;;;19.39;52.35;102161.50;2165647;26;2749290;-77
2024/04/14 00:51:01;;;;;;;;;4.33;4.33;;;;;19.38;50.71;102157.13;2164893;26;2746164;-77
2024/04/14 00:52:12;;;;;;;;;3.33;3.00;;;;;19.36;48.28;102172.34;2175261;26;2733542;-77
2024/04/14 00:53:23;;;;;;;;;4.00;3.00;;;;;19.25;49.63;102164.84;2180396;26;2739829;-77
2024/04/14 00:54:36;;;;;;;;;3.33;3.33;;;;;19.25;49.33;102170.16;2179269;26;2754822;-77
2024/04/14 00:55:50;;;;;;;;;3.83;2.67;;;;;19.19;49.30;102166.84;2207401;26;2738007;-77
2024/04/14 00:57:04;;;;;;;;;3.33;3.00;;;;;19.20;49.37;102168.59;2172422;25;2739888;-77
2024/04/14 00:58:17;;;;;;;;;2.67;2.67;;;;;19.17;48.55;102170.50;2158006;25;2753412;-77
2024/04/14 00:59:32;;;;;;;;;6.67;4.33;;;;;19.16;48.07;102172.28;2208315;26;2744277;-77
2024/04/14 01:00:46;;;;;;;;;4.00;3.67;;;;;19.15;49.46;102175.03;2183816;26;2740843;-77
2024/04/14 01:01:57;;;;;;;;;4.00;3.00;;;;;19.15;48.50;102175.03;2154105;26;3470138;-77
2024/04/14 01:03:08;;;;;;;;;3.67;3.00;;;;;19.11;48.66;102171.66;2165835;26;2746197;-77
2024/04/14 01:04:19;;;;;;;;;4.33;3.00;;;;;19.08;48.72;102170.00;2174670;26;2754576;-77
2024/04/14 01:05:30;;;;;;;;;4.00;4.00;;;;;19.06;47.58;102169.19;2180418;26;2739836;-77
2024/04/14 01:06:41;;;;;;;;;3.00;3.00;;;;;19.03;47.65;102166.69;2181763;25;2750660;-77
2024/04/14 01:07:54;;;;;;;;;6.33;2.67;;;;;18.99;47.22;102167.75;2169164;25;2739776;-77
2024/04/14 01:09:09;;;;;;;;;4.17;4.17;;;;;18.98;48.08;102168.69;2192387;26;2739787;-77
2024/04/14 01:10:23;;;;;;;;;1.50;1.50;;;;;18.98;48.03;102168.69;2168408;26;2745032;-77
2024/04/14 01:11:34;;;;;;;;;5.33;4.00;;;;;18.95;47.71;102179.47;2155191;26;2746062;-77
2024/04/14 01:12:48;;;;;;;;;4.33;3.17;;;;;18.93;47.74;102166.25;2209533;25;2737730;-77
2024/04/14 01:14:03;;;;;;;;;1.67;1.67;;;;;18.88;45.26;102170.91;2157924;25;2742937;-78
2024/04/14 01:15:18;;;;;;;;;4.00;4.00;;;;;18.81;45.93;102174.78;2206241;25;2741868;-78
2024/04/14 01:16:36;;;;;;;;;5.33;5.00;;;;;18.76;45.65;102185.66;2169268;26;2730523;-77
2024/04/14 01:17:47;;;;;;;;;3.00;3.00;;;;;18.70;44.89;102180.59;2117058;26;2735667;-77
2024/04/14 01:18:58;;;;;;;;;3.00;3.00;;;;;18.66;44.79;102179.88;2154229;26;2752364;-79
2024/04/14 01:20:13;;;;;;;;;3.00;2.00;;;;;18.62;44.80;102173.81;2194173;26;2735665;-78
2024/04/14 01:21:29;;;;;;;;;2.00;2.00;;;;;18.62;44.71;102175.63;2193042;26;2731476;-77
2024/04/14 01:22:42;;;;;;;;;3.67;2.33;;;;;18.65;44.71;102179.00;2167959;26;2736699;-78
2024/04/14 01:23:56;;;;;;;;;1.17;1.17;;;;;18.63;44.23;102172.88;2172719;26;2733545;-77
2024/04/14 01:25:08;;;;;;;;;4.00;3.67;;;;;18.63;44.49;102170.22;2146312;26;2743973;-77
2024/04/14 01:26:19;;;;;;;;;3.00;2.33;;;;;18.65;43.86;102178.13;2165963;26;2737797;-77
2024/04/14 01:27:30;;;;;;;;;3.33;3.33;;;;;18.61;43.92;102180.09;2166177;26;2750274;-77
2024/04/14 01:28:43;;;;;;;;;4.00;2.50;;;;;18.62;44.88;102175.63;2201927;26;2750695;-77
2024/04/14 01:29:57;;;;;;;;;3.17;2.00;;;;;18.65;44.25;102178.13;2205912;25;2730411;-78
2024/04/14 01:31:11;;;;;;;;;1.67;1.33;;;;;18.63;44.09;102178.22;2168264;26;2732489;-77
2024/04/14 01:32:24;;;;;;;;;2.83;2.83;;;;;18.64;43.45;102197.72;2168183;26;2724187;-77
2024/04/14 01:33:38;;;;;;;;;2.17;2.17;;;;;18.59;43.86;102184.63;2168419;26;2741868;-78
2024/04/14 01:34:49;;;;;;;;;4.00;3.67;;;;;18.57;43.50;102189.13;2132804;26;2749247;-77
2024/04/14 01:36:03;;;;;;;;;2.83;2.83;;;;;18.60;43.32;102190.78;2208006;26;2737850;-77
2024/04/14 01:37:14;;;;;;;;;4.67;3.00;;;;;18.55;43.73;102196.31;2164906;26;2752350;-77
2024/04/14 01:38:25;;;;;;;;;3.67;2.67;;;;;18.54;43.68;102191.94;2165605;26;2741242;-77
2024/04/14 01:39:36;;;;;;;;;1.67;1.67;;;;;18.50;43.71;102199.19;2175191;26;2741867;-77
2024/04/14 01:40:47;;;;;;;;;3.00;3.00;;;;;18.47;43.77;102193.97;2180276;25;3469983;-77
2024/04/14 01:41:58;;;;;;;;;3.33;2.00;;;;;18.43;42.68;102200.38;2180199;26;2750197;-77
2024/04/14 01:43:12;;;;;;;;;2.33;2.33;;;;;18.32;43.63;102196.38;2208766;26;2727285;-78
2024/04/14 01:44:23;;;;;;;;;3.33;3.33;;;;;18.29;43.79;102198.31;2154266;26;2754576;-77
2024/04/14 01:45:34;;;;;;;;;2.67;2.67;;;;;18.28;44.07;102199.25;2182086;25;2750761;-77
2024/04/14 01:46:44;;;;;;;;;2.33;2.33;;;;;18.28;43.85;102201.91;2169718;26;2750204;-77
2024/04/14 01:47:58;;;;;;;;;5.00;3.00;;;;;18.28;44.07;102201.91;2207171;26;2749186;-77
2024/04/14 01:49:09;;;;;;;;;2.33;2.33;;;;;18.18;44.41;102188.09;2151891;25;3463773;-77
2024/04/14 01:50:23;;;;;;;;;2.00;2.00;;;;;18.10;44.03;102183.09;2193882;26;2738203;-77
2024/04/14 01:51:37;;;;;;;;;3.67;3.00;;;;;18.13;44.04;102188.28;2192699;26;2739805;-77
2024/04/14 01:52:48;;;;;;;;;3.67;3.67;;;;;18.11;43.80;102185.69;2141388;26;2742214;-77
2024/04/14 01:54:01;;;;;;;;;4.50;3.00;;;;;18.14;44.74;102190.03;2196647;26;2736666;-77
2024/04/14 01:55:13;;;;;;;;;4.00;4.00;;;;;18.11;44.19;102188.38;2180050;25;2754490;-77
2024/04/14 01:56:24;;;;;;;;;2.67;2.67;;;;;18.10;44.28;102185.75;2168817;26;2752355;-77
2024/04/14 01:57:35;;;;;;;;;3.00;3.00;;;;;18.09;44.28;102184.91;2164135;26;2754479;-77
2024/04/14 01:58:45;;;;;;;;;2.00;2.00;;;;;18.11;44.76;102187.50;2174709;26;2754382;-77
2024/04/14 01:59:59;;;;;;;;;1.83;1.83;;;;;18.09;44.54;102205.31;2207057;25;2748128;-77
2024/04/14 02:01:13;;;;;;;;;3.50;3.50;;;;;18.07;44.77;102201.88;2192046;26;2746066;-77
2024/04/14 02:02:24;;;;;;;;;4.00;4.00;;;;;18.09;45.11;102213.28;2141364;26;2754405;-77
2024/04/14 02:03:41;;;;;;;;;2.17;2.17;;;;;18.06;45.07;102202.78;2192836;26;2741852;-77
2024/04/14 02:04:52;;;;;;;;;3.00;2.67;;;;;18.08;45.06;102206.22;2174825;26;2750311;-77
2024/04/14 02:06:03;;;;;;;;;7.00;4.00;;;;;18.09;45.41;102202.66;2164267;26;2749675;-77
2024/04/14 02:07:17;;;;;;;;;2.00;1.33;;;;;18.09;44.48;102202.66;2192948;26;2743954;-77
2024/04/14 02:08:28;;;;;;;;;3.67;2.00;;;;;18.08;44.97;102201.78;2154637;25;2754428;-77
2024/04/14 02:09:39;;;;;;;;;3.00;3.00;;;;;18.13;44.66;102198.06;2176225;26;2754468;-77
2024/04/14 02:10:50;;;;;;;;;2.00;2.00;;;;;18.11;45.41;102200.78;2179683;26;2748643;-78
2024/04/14 02:12:01;;;;;;;;;3.00;3.00;;;;;18.06;45.16;102198.31;2169907;26;2749238;-78
2024/04/14 02:13:12;;;;;;;;;3.00;2.00;;;;;17.98;45.02;102195.97;2164494;26;2744031;-78
2024/04/14 02:14:23;;;;;;;;;3.00;3.00;;;;;17.96;45.19;102197.84;2168822;26;2749216;-78
2024/04/14 02:15:37;;;;;;;;;4.00;1.33;;;;;17.91;45.07;102197.16;2193366;26;2736667;-77
2024/04/14 02:16:51;;;;;;;;;3.67;3.67;;;;;17.90;44.49;102191.91;2191524;26;2752293;-77
2024/04/14 02:18:02;;;;;;;;;3.33;2.33;;;;;17.85;45.06;102197.44;2140817;26;2739813;-77
2024/04/14 02:19:13;;;;;;;;;4.00;4.00;;;;;17.84;45.56;102207.19;2166386;26;2737736;-77
2024/04/14 02:20:24;;;;;;;;;6.00;5.00;;;;;17.85;45.56;102206.25;2166353;26;2752364;-77
2024/04/14 02:21:35;;;;;;;;;3.00;3.00;;;;;17.82;45.64;102202.88;2165755;26;2754365;-77
2024/04/14 02:22:46;;;;;;;;;2.67;2.67;;;;;17.81;44.92;102206.44;2168531;26;3459536;-78
2024/04/14 02:23:57;;;;;;;;;3.33;3.00;;;;;17.80;45.33;102205.59;2180460;26;2752851;-77
2024/04/14 02:25:11;;;;;;;;;5.00;2.50;;;;;17.75;45.50;102200.44;2208142;26;2738742;-77
2024/04/14 02:26:25;;;;;;;;;3.50;3.50;;;;;17.73;45.24;102202.28;2175359;26;2736705;-77
2024/04/14 02:27:36;;;;;;;;;3.00;3.00;;;;;17.72;45.39;102202.38;2143583;26;2754447;-77
2024/04/14 02:28:50;;;;;;;;;2.67;2.00;;;;;17.74;45.30;102213.81;2207900;25;2733544;-77
2024/04/14 02:30:03;;;;;;;;;2.33;2.33;;;;;17.74;45.57;102214.69;2198070;25;2734596;-77
2024/04/14 02:31:18;;;;;;;;;2.00;1.50;;;;;17.64;46.03;102213.31;2168085;26;2735639;-77
2024/04/14 02:32:32;;;;;;;;;4.50;3.33;;;;;17.62;45.86;102216.03;2182065;25;2748113;-77
2024/04/14 02:33:43;;;;;;;;;3.67;3.67;;;;;17.63;45.49;102214.25;2156084;26;2752408;-77
2024/04/14 02:34:57;;;;;;;;;2.50;2.00;;;;;17.59;45.71;102220.59;2206647;26;2742159;-77
2024/04/14 02:36:11;;;;;;;;;4.00;2.17;;;;;17.51;45.59;102235.03;2206006;26;2736725;-77
2024/04/14 02:37:25;;;;;;;;;2.67;2.67;;;;;17.44;45.81;102238.88;2183079;26;2738188;-78
2024/04/14 02:38:38;;;;;;;;;3.50;3.00;;;;;17.43;45.64;102232.69;2182329;26;2741864;-77
2024/04/14 02:39:50;;;;;;;;;3.33;3.33;;;;;17.33;46.26;102228.66;2155028;25;2752337;-77
2024/04/14 02:41:02;;;;;;;;;6.00;3.00;;;;;17.32;45.58;102216.28;2180899;26;2740862;-77
2024/04/14 02:42:13;;;;;;;;;6.00;3.67;;;;;17.32;46.03;102224.25;2179685;26;2754384;-77
2024/04/14 02:43:24;;;;;;;;;3.67;3.67;;;;;17.32;46.20;102230.44;2180311;25;2748143;-77
2024/04/14 02:44:35;;;;;;;;;2.00;2.00;;;;;17.32;46.32;102233.09;2162855;26;2748128;-77
2024/04/14 02:45:46;;;;;;;;;5.67;3.00;;;;;17.31;46.55;102228.72;2165540;26;2754378;-77
2024/04/14 02:46:57;;;;;;;;;5.00;4.00;;;;;17.31;46.45;102231.38;2174576;26;2754363;-77
2024/04/14 02:48:08;;;;;;;;;3.33;3.33;;;;;17.28;46.96;102228.84;2178067;25;2746061;-77
2024/04/14 02:49:22;;;;;;;;;2.17;2.17;;;;;17.30;46.75;102232.31;2208278;25;2740822;-77
2024/04/14 02:50:36;;;;;;;;;2.67;2.67;;;;;17.29;47.00;102221.72;2180303;26;2732541;-77
2024/04/14 02:51:49;;;;;;;;;3.00;3.00;;;;;17.24;47.25;102234.31;2167776;26;2739782;-78
2024/04/14 02:53:00;;;;;;;;;5.00;3.67;;;;;17.17;47.57;102239.00;2146168;26;2754540;-77
2024/04/14 02:54:14;;;;;;;;;3.33;3.33;;;;;17.13;47.86;102224.06;2208399;25;2746216;-77
2024/04/14 02:55:28;;;;;;;;;2.67;2.67;;;;;17.14;47.78;102231.09;2204780;26;2752292;-77
2024/04/14 02:56:42;;;;;;;;;1.83;1.33;;;;;17.09;47.44;102229.47;2166912;26;2731444;-77
2024/04/14 02:58:01;;;;;;;;;2.67;2.67;;;;;17.09;47.71;102228.59;2168158;26;2747123;-77
2024/04/14 02:59:12;;;;;;;;;3.00;3.00;;;;;17.06;48.00;102229.59;2154037;25;2752392;-77
2024/04/14 03:00:25;;;;;;;;;2.33;2.00;;;;;17.06;48.10;102226.94;2204410;25;2736994;-78
2024/04/14 03:01:36;;;;;;;;;5.00;4.00;;;;;17.06;47.67;102226.94;2165262;26;2752302;-78
2024/04/14 03:02:47;;;;;;;;;5.00;2.33;;;;;17.06;47.06;102229.59;2165531;26;2742170;-78
2024/04/14 03:04:01;;;;;;;;;2.00;2.00;;;;;17.02;47.49;102227.09;2194937;26;2730414;-77
2024/04/14 03:05:15;;;;;;;;;3.33;2.83;;;;;16.99;47.12;102231.59;2204313;26;2742964;-77
2024/04/14 03:06:28;;;;;;;;;2.33;2.17;;;;;16.98;48.12;102226.38;2180162;26;2739034;-77
2024/04/14 03:07:42;;;;;;;;;3.17;2.50;;;;;16.96;47.60;102233.53;2185951;25;2739214;-77
2024/04/14 03:08:53;;;;;;;;;4.00;4.00;;;;;16.94;47.39;102230.06;2153839;26;2754830;-77
2024/04/14 03:10:07;;;;;;;;;1.17;1.17;;;;;16.94;47.90;102227.41;2195544;26;2739856;-77
2024/04/14 03:11:18;;;;;;;;;3.67;3.67;;;;;16.96;48.37;102228.22;2168404;26;2750248;-78
2024/04/14 03:12:32;;;;;;;;;4.83;3.00;;;;;16.95;47.83;102232.66;2195512;26;2736739;-77
2024/04/14 03:13:46;;;;;;;;;2.67;2.50;;;;;16.94;48.06;102240.69;2170291;26;2735656;-77
2024/04/14 03:14:57;;;;;;;;;4.00;3.00;;;;;16.89;48.00;102238.16;2154582;26;2752361;-77
2024/04/14 03:16:11;;;;;;;;;3.17;3.17;;;;;16.87;48.13;102245.31;2206045;26;2744213;-77
2024/04/14 03:17:25;;;;;;;;;4.00;3.00;;;;;16.84;47.96;102234.84;2167632;26;2740880;-77
2024/04/14 03:18:39;;;;;;;;;4.17;3.17;;;;;16.80;48.51;102228.75;2207424;26;2730409;-77
2024/04/14 03:19:53;;;;;;;;;3.67;3.00;;;;;16.81;48.40;102229.63;2156068;26;2746046;-77
2024/04/14 03:21:07;;;;;;;;;2.83;2.83;;;;;16.84;48.58;102235.69;2208945;26;2735697;-77
2024/04/14 03:22:21;;;;;;;;;3.17;2.17;;;;;16.80;48.93;102233.19;2183068;26;2735620;-77
2024/04/14 03:23:35;;;;;;;;;3.00;2.83;;;;;16.76;49.17;102225.34;2186034;26;2739812;-77
2024/04/14 03:24:46;;;;;;;;;5.00;3.00;;;;;16.75;48.55;102230.72;2153272;26;2754440;-77
2024/04/14 03:26:01;;;;;;;;;4.67;2.83;;;;;16.76;48.92;102227.16;2208878;25;2725208;-77
2024/04/14 03:27:15;;;;;;;;;2.33;2.33;;;;;16.69;48.60;102220.31;2213548;25;2734620;-77
2024/04/14 03:28:28;;;;;;;;;4.00;3.00;;;;;16.65;49.33;102236.34;2183241;25;2736692;-77
2024/04/14 03:29:39;;;;;;;;;4.00;4.00;;;;;16.57;49.55;102227.78;2157116;26;2746048;-77
2024/04/14 03:30:51;;;;;;;;;3.00;3.00;;;;;16.55;49.82;102237.56;2181074;26;2743970;-77
2024/04/14 03:32:06;;;;;;;;;4.67;3.00;;;;;16.51;49.78;102234.19;2208347;25;2749204;-78
2024/04/14 03:33:19;;;;;;;;;2.67;2.00;;;;;16.50;49.97;102229.78;2182113;26;2743966;-77
2024/04/14 03:34:34;;;;;;;;;0.83;0.83;;;;;16.47;49.99;102231.69;2185626;25;2727309;-77
2024/04/14 03:36:01;;;;;;;;;3.00;3.00;;;;;16.51;50.03;102233.31;2182290;26;2733610;-77
2024/04/14 03:37:15;;;;;;;;;4.67;2.33;;;;;16.45;50.41;102233.50;2185317;25;2731500;-77
2024/04/14 03:38:26;;;;;;;;;3.00;3.00;;;;;16.38;50.56;102227.53;2155784;25;2754433;-77
2024/04/14 03:39:37;;;;;;;;;3.00;3.00;;;;;16.37;50.13;102231.13;2180778;26;2754517;-77
2024/04/14 03:40:53;;;;;;;;;3.00;3.00;;;;;16.34;50.75;102224.13;2173521;26;2748144;-77
2024/04/14 03:42:04;;;;;;;;;3.00;3.00;;;;;16.31;51.17;102232.19;2180525;26;2754413;-77
2024/04/14 03:43:15;;;;;;;;;3.00;3.00;;;;;16.32;50.40;102233.94;2178640;26;2754409;-77
2024/04/14 03:44:29;;;;;;;;;2.17;2.17;;;;;16.30;50.22;102235.75;2194204;26;2741872;-77
2024/04/14 03:45:43;;;;;;;;;3.33;3.33;;;;;16.30;50.58;102230.44;2163930;26;2754405;-77
2024/04/14 03:46:57;;;;;;;;;3.17;2.83;;;;;16.29;50.28;102226.94;2193859;26;2741959;-77
2024/04/14 03:48:08;;;;;;;;;4.00;3.00;;;;;16.30;51.04;102233.09;2154521;25;2748456;-77
2024/04/14 03:49:22;;;;;;;;;5.17;4.33;;;;;16.29;50.62;102228.72;2209154;25;2739796;-77
2024/04/14 03:50:36;;;;;;;;;1.00;1.00;;;;;16.27;50.53;102227.91;2193870;26;2734596;-77
2024/04/14 03:51:46;;;;;;;;;3.00;2.33;;;;;16.28;50.91;102237.59;2140002;26;2738820;-77
2024/04/14 03:52:57;;;;;;;;;4.00;3.00;;;;;16.27;51.36;102226.09;2165991;26;2742321;-77
2024/04/14 03:54:11;;;;;;;;;3.83;3.00;;;;;16.34;50.23;102239.19;2195024;26;2749171;-77
2024/04/14 03:55:22;;;;;;;;;4.00;4.00;;;;;16.33;50.99;102235.66;2145384;26;2754459;-77
2024/04/14 03:56:36;;;;;;;;;5.67;3.50;;;;;16.30;51.02;102235.75;2208419;25;2754438;-77
2024/04/14 03:57:50;;;;;;;;;2.33;2.33;;;;;16.32;50.69;102244.56;2206577;26;2737716;-77
2024/04/14 03:59:03;;;;;;;;;3.33;3.00;;;;;16.24;51.68;102239.50;2182531;25;2750219;-77
2024/04/14 04:00:14;;;;;;;;;5.00;4.33;;;;;16.29;51.63;102242.00;2154724;26;2758561;-77
2024/04/14 04:01:25;;;;;;;;;3.00;2.00;;;;;16.26;51.25;102239.44;2180290;26;2754462;-77
2024/04/14 04:02:36;;;;;;;;;3.67;3.67;;;;;16.25;51.17;102243.88;2180736;26;2749155;-77
2024/04/14 04:03:53;;;;;;;;;2.00;2.00;;;;;16.28;51.42;102245.56;2208318;26;2740252;-77
2024/04/14 04:05:08;;;;;;;;;2.00;2.00;;;;;16.29;51.49;102242.00;2195102;26;2746073;-77
2024/04/14 04:06:21;;;;;;;;;5.83;4.00;;;;;16.31;51.51;102235.72;2179624;26;2752296;-77
2024/04/14 04:07:35;;;;;;;;;2.00;2.00;;;;;16.31;51.78;102240.16;2184343;26;2740866;-77
2024/04/14 04:08:46;;;;;;;;;4.00;2.67;;;;;16.28;52.15;102229.63;2154616;25;2752303;-77
2024/04/14 04:09:57;;;;;;;;;3.00;3.00;;;;;16.27;51.51;102236.72;2180378;25;2754473;-77
2024/04/14 04:11:08;;;;;;;;;3.00;3.00;;;;;16.23;52.05;102237.75;2180103;25;2754418;-77
2024/04/14 04:12:22;;;;;;;;;4.67;2.50;;;;;16.23;51.78;102237.75;2208344;26;2746023;-77
2024/04/14 04:13:36;;;;;;;;;2.83;2.83;;;;;16.20;52.27;102241.38;2207354;26;2730471;-77
2024/04/14 04:14:51;;;;;;;;;4.00;3.33;;;;;16.21;51.84;102247.56;2181813;26;2735636;-77
2024/04/14 04:16:06;;;;;;;;;3.83;3.83;;;;;16.18;52.61;102248.50;2170995;25;2741895;-77
2024/04/14 04:17:20;;;;;;;;;4.33;4.00;;;;;16.16;52.19;102246.81;2169224;26;2742932;-77
2024/04/14 04:18:32;;;;;;;;;3.00;2.00;;;;;16.13;52.34;102253.09;2149085;26;2746059;-77
2024/04/14 04:19:46;;;;;;;;;6.00;3.17;;;;;16.08;52.50;102247.06;2207480;25;2747104;-77
2024/04/14 04:21:01;;;;;;;;;2.00;2.00;;;;;16.07;53.24;102250.66;2178094;26;2739805;-77
2024/04/14 04:22:12;;;;;;;;;2.00;2.00;;;;;16.12;52.39;102255.81;2140621;26;2753375;-77
2024/04/14 04:23:24;;;;;;;;;4.00;4.00;;;;;16.07;53.13;102245.34;2165840;26;2752629;-77
2024/04/14 04:24:38;;;;;;;;;3.00;3.00;;;;;16.05;52.80;102256.00;2202752;26;2737748;-78
2024/04/14 04:25:48;;;;;;;;;6.33;3.00;;;;;16.04;52.92;102253.38;2154727;25;2749163;-77
2024/04/14 04:26:59;;;;;;;;;5.00;4.00;;;;;16.01;52.34;102251.69;2180851;25;2752337;-77
2024/04/14 04:28:13;;;;;;;;;3.00;2.83;;;;;15.96;53.41;102250.97;2209343;25;2739803;-77
2024/04/14 04:29:29;;;;;;;;;3.17;2.83;;;;;15.93;53.46;102249.25;2181994;26;2743982;-77
2024/04/14 04:30:40;;;;;;;;;5.33;5.33;;;;;15.94;52.91;102255.44;2156392;26;2748134;-77
2024/04/14 04:31:51;;;;;;;;;3.00;3.00;;;;;15.93;54.03;102265.19;2180757;26;2754670;-77
2024/04/14 04:33:05;;;;;;;;;4.00;3.83;;;;;15.89;53.50;102258.25;2192641;26;2738753;-77
2024/04/14 04:34:19;;;;;;;;;6.83;3.17;;;;;15.88;53.30;102256.50;2167834;26;2740841;-77
2024/04/14 04:35:30;;;;;;;;;3.00;3.00;;;;;15.84;52.77;102254.88;2140823;26;2751274;-77
2024/04/14 04:36:41;;;;;;;;;3.67;3.67;;;;;15.82;54.02;102254.06;2179472;26;2747086;-77
2024/04/14 04:37:55;;;;;;;;;7.67;3.17;;;;;15.83;53.22;102264.59;2208032;26;2741148;-77
2024/04/14 04:39:09;;;;;;;;;3.17;3.17;;;;;15.82;53.42;102270.84;2182232;26;2737741;-77
2024/04/14 04:40:23;;;;;;;;;4.83;3.67;;;;;15.81;54.05;102270.84;2182408;25;2744017;-77
2024/04/14 04:41:36;;;;;;;;;7.33;5.50;;;;;15.75;54.31;102264.81;2178845;25;2745043;-77
2024/04/14 04:42:52;;;;;;;;;4.17;4.17;;;;;15.67;54.46;102258.03;2168870;26;2737721;-77
2024/04/14 04:44:04;;;;;;;;;3.33;3.00;;;;;15.61;54.93;102272.31;2141576;26;2754395;-77
2024/04/14 04:45:15;;;;;;;;;10.67;5.00;;;;;15.55;54.64;102269.88;2164878;26;3485649;-77
2024/04/14 04:46:26;;;;;;;;;6.67;4.33;;;;;15.53;55.26;102270.78;2165068;26;2750196;-77
2024/04/14 04:47:41;;;;;;;;;8.17;5.00;;;;;15.48;55.09;102270.03;2195593;26;2744043;-77
2024/04/14 04:48:56;;;;;;;;;4.00;4.00;;;;;15.44;55.36;102265.75;2199520;26;2745012;-77
2024/04/14 04:50:07;;;;;;;;;5.67;5.00;;;;;15.39;55.12;102270.31;2143879;26;3463742;-77
2024/04/14 04:51:19;;;;;;;;;6.33;4.67;;;;;15.39;55.23;102272.97;2170999;26;3461626;-77
2024/04/14 04:52:30;;;;;;;;;5.00;4.00;;;;;15.41;55.52;102276.44;2165615;26;2750265;-77
2024/04/14 04:53:40;;;;;;;;;6.33;4.67;;;;;15.45;54.85;102280.75;2180269;25;2754460;-77
2024/04/14 04:54:51;;;;;;;;;4.33;4.33;;;;;15.41;55.60;102279.09;2181228;25;2750208;-77
2024/04/14 04:56:02;;;;;;;;;6.33;5.33;;;;;15.38;55.89;102282.69;2179527;26;2748126;-77
2024/04/14 04:57:16;;;;;;;;;5.50;4.17;;;;;15.35;55.70;102284.56;2208296;26;2734600;-77
2024/04/14 04:58:27;;;;;;;;;6.00;5.67;;;;;15.37;56.01;102283.63;2153242;26;2752328;-77
2024/04/14 04:59:38;;;;;;;;;7.33;5.00;;;;;15.37;55.80;102288.91;2179927;26;2745049;-77
2024/04/14 05:00:57;;;;;;;;;6.25;6.25;;;;;15.36;55.78;102286.31;2195710;26;1816856;-77
2024/04/14 05:02:08;;;;;;;;;6.00;6.00;;;;;15.39;56.09;102283.56;2181638;25;2746034;-77
2024/04/14 05:03:19;;;;;;;;;5.67;5.00;;;;;15.38;55.75;102281.84;2179176;26;2752396;-77
2024/04/14 05:04:30;;;;;;;;;4.00;3.67;;;;;15.41;55.81;102279.09;2168156;26;2745021;-77
2024/04/14 05:05:41;;;;;;;;;4.67;4.67;;;;;15.43;56.19;102279.94;2180124;26;2750245;-77
2024/04/14 05:06:52;;;;;;;;;5.00;4.67;;;;;15.47;56.42;102284.22;2180126;26;2743983;-77
2024/04/14 05:08:03;;;;;;;;;6.00;6.00;;;;;15.48;56.12;102285.09;2156116;26;2750223;-77
2024/04/14 05:09:18;;;;;;;;;5.83;5.83;;;;;15.47;56.27;102284.22;2195663;26;2747111;-77
2024/04/14 05:10:29;;;;;;;;;6.00;5.00;;;;;15.41;56.54;102282.59;2143676;26;2748195;-78
2024/04/14 05:11:40;;;;;;;;;4.67;4.00;;;;;15.39;55.94;102286.22;2177025;25;3466276;-77
2024/04/14 05:12:54;;;;;;;;;6.50;5.00;;;;;15.35;56.41;102287.22;2196741;26;2741886;-77
2024/04/14 05:14:05;;;;;;;;;6.33;6.00;;;;;15.30;56.25;102290.88;2172132;26;2747199;-77
2024/04/14 05:15:16;;;;;;;;;5.00;4.67;;;;;15.30;56.32;102292.66;2165705;26;2752420;-77
2024/04/14 05:16:27;;;;;;;;;9.67;8.67;;;;;15.25;56.74;102289.25;2178142;26;2748152;-77
2024/04/14 05:17:38;;;;;;;;;8.33;5.67;;;;;15.22;57.07;102292.84;2171511;26;2755483;-77
2024/04/14 05:18:49;;;;;;;;;5.33;5.33;;;;;15.14;57.06;102294.84;2178326;26;2748143;-77
2024/04/14 05:20:00;;;;;;;;;9.00;6.00;;;;;15.10;57.17;102295.84;2166290;26;2755424;-77
2024/04/14 05:21:11;;;;;;;;;5.67;4.33;;;;;14.98;57.41;102291.75;2173051;25;2752315;-77
2024/04/14 05:22:22;;;;;;;;;8.00;5.33;;;;;14.90;57.83;102284.00;2169529;25;3466883;-77
2024/04/14 05:23:33;;;;;;;;;5.67;5.00;;;;;14.92;57.52;102303.38;2171805;26;2747100;-77
2024/04/14 05:24:44;;;;;;;;;6.67;5.33;;;;;14.86;57.84;102301.78;2175564;26;2737888;-77
2024/04/14 05:25:55;;;;;;;;;10.00;6.00;;;;;14.89;57.70;102308.75;2178975;25;3487721;-77
2024/04/14 05:27:09;;;;;;;;;9.67;7.00;;;;;14.85;57.81;102307.94;2178272;25;2745048;-77
2024/04/14 05:28:20;;;;;;;;;10.67;7.33;;;;;14.76;57.98;102300.22;2177304;26;3471037;-78
2024/04/14 05:29:32;;;;;;;;;8.00;8.00;;;;;14.74;57.97;102295.84;2193234;26;1836747;-77